Time;durP1;ratioP1;P1;durP2;ratioP2;P2;SDS_P1;SDS_P2;PMS_P1;PMS_P2;Temp;Humidity;BMP_temperature;BMP_pressure;BME280_temperature;BME280_humidity;BME280_pressure;Samples;Min_cycle;Max_cycle;Signal;HPM_P1;HPM_P2
2021/06/08 00:00:41;;;;;;;7.25;6.13;;;;;;;;;;5064933;28;20063;-54
2021/06/08 00:03:07;;;;;;;7.68;6.53;;;;;;;;;;5067867;28;20056;-55
2021/06/08 00:05:33;;;;;;;9.23;6.50;;;;;;;;;;5065514;28;20310;-55
2021/06/08 00:08:01;;;;;;;10.23;6.25;;;;;;;;;;5062266;28;20055;-54
2021/06/08 00:10:27;;;;;;;9.77;6.60;;;;;;;;;;5061226;28;20063;-54
2021/06/08 00:12:53;;;;;;;8.85;6.78;;;;;;;;;;5066385;28;20040;-52
2021/06/08 00:15:20;;;;;;;9.10;6.72;;;;;;;;;;5061848;28;20057;-51
2021/06/08 00:17:46;;;;;;;10.68;7.00;;;;;;;;;;5059870;28;20054;-53
2021/06/08 00:20:14;;;;;;;9.68;6.72;;;;;;;;;;5061032;28;20098;-53
2021/06/08 00:22:44;;;;;;;7.47;6.00;;;;;;;;;;5063943;28;20086;-52
2021/06/08 00:25:11;;;;;;;10.27;7.28;;;;;;;;;;5065724;28;20052;-53
2021/06/08 00:27:37;;;;;;;8.57;7.22;;;;;;;;;;5064700;28;20401;-54
2021/06/08 00:30:04;;;;;;;9.63;6.78;;;;;;;;;;5061022;28;20055;-53
2021/06/08 00:32:30;;;;;;;9.27;6.38;;;;;;;;;;5066985;28;20044;-54
2021/06/08 00:34:57;;;;;;;10.07;7.30;;;;;;;;;;5064089;28;20044;-55
2021/06/08 00:37:24;;;;;;;9.25;6.82;;;;;;;;;;5066548;28;20059;-56
2021/06/08 00:39:51;;;;;;;10.77;7.53;;;;;;;;;;5066062;28;20610;-55
2021/06/08 00:42:28;;;;;;;10.60;6.93;;;;;;;;;;5062710;28;20384;-56
2021/06/08 00:44:54;;;;;;;10.30;7.00;;;;;;;;;;5062491;28;20593;-55
2021/06/08 00:47:21;;;;;;;11.30;7.22;;;;;;;;;;5066910;28;20055;-54
2021/06/08 00:49:47;;;;;;;8.15;6.38;;;;;;;;;;5065450;28;20040;-56
2021/06/08 00:52:15;;;;;;;11.55;7.95;;;;;;;;;;5063775;28;20056;-51
2021/06/08 00:54:41;;;;;;;10.18;7.00;;;;;;;;;;5063116;28;20044;-55
2021/06/08 00:57:08;;;;;;;8.75;7.20;;;;;;;;;;5059749;28;20426;-52
2021/06/08 00:59:34;;;;;;;10.60;7.13;;;;;;;;;;5054595;28;20059;-54
2021/06/08 01:02:01;;;;;;;14.50;7.53;;;;;;;;;;5046726;28;20471;-55
2021/06/08 01:04:27;;;;;;;11.15;7.38;;;;;;;;;;5064400;28;20068;-56
2021/06/08 01:06:54;;;;;;;8.20;6.82;;;;;;;;;;5063722;28;20080;-52
2021/06/08 01:09:21;;;;;;;12.13;7.47;;;;;;;;;;5063756;28;20040;-52
2021/06/08 01:11:47;;;;;;;10.75;7.68;;;;;;;;;;5062971;28;20134;-55
2021/06/08 01:14:14;;;;;;;9.73;7.60;;;;;;;;;;5063587;28;20114;-55
2021/06/08 01:16:40;;;;;;;10.20;7.90;;;;;;;;;;5064240;28;20052;-53
2021/06/08 01:19:07;;;;;;;11.20;8.52;;;;;;;;;;5062629;28;20448;-52
2021/06/08 01:21:34;;;;;;;11.43;8.68;;;;;;;;;;5067678;28;20080;-52
2021/06/08 01:24:02;;;;;;;10.73;7.88;;;;;;;;;;5066319;28;20056;-52
2021/06/08 01:26:29;;;;;;;13.65;8.07;;;;;;;;;;5063642;28;20047;-56
2021/06/08 01:29:00;;;;;;;11.50;8.50;;;;;;;;;;5065014;28;20395;-55
2021/06/08 01:31:28;;;;;;;11.82;8.57;;;;;;;;;;5047783;28;20045;-54
2021/06/08 01:33:55;;;;;;;10.38;8.27;;;;;;;;;;5063451;28;20114;-56
2021/06/08 01:36:22;;;;;;;12.45;8.88;;;;;;;;;;5059800;28;20055;-56
2021/06/08 01:38:51;;;;;;;11.57;8.65;;;;;;;;;;5063405;28;20475;-51
2021/06/08 01:41:22;;;;;;;13.05;8.68;;;;;;;;;;5066176;28;20048;-54
2021/06/08 01:43:49;;;;;;;11.73;8.32;;;;;;;;;;5065269;28;20159;-57
2021/06/08 01:46:16;;;;;;;11.25;8.00;;;;;;;;;;5045316;28;20058;-53
2021/06/08 01:48:43;;;;;;;13.38;8.50;;;;;;;;;;5065401;28;20040;-52
2021/06/08 01:51:18;;;;;;;12.52;8.70;;;;;;;;;;5065677;28;20055;-52
2021/06/08 01:53:45;;;;;;;;;;;;;;;;;;5064682;28;20044;-55
2021/06/08 01:56:14;;;;;;;12.05;8.38;;;;;;;;;;5064029;28;20382;-52
2021/06/08 01:58:48;;;;;;;12.93;9.45;;;;;;;;;;5067916;28;20044;-53
2021/06/08 02:01:18;;;;;;;12.38;9.05;;;;;;;;;;5064193;28;20051;-52
2021/06/08 02:03:57;;;;;;;14.55;9.20;;;;;;;;;;5066405;28;20147;-54
2021/06/08 02:06:29;;;;;;;12.10;9.02;;;;;;;;;;5061989;28;20115;-53
2021/06/08 02:09:10;;;;;;;13.25;8.95;;;;;;;;;;5063620;28;20410;-51
2021/06/08 02:11:58;;;;;;;12.45;9.88;;;;;;;;;;5064048;28;20094;-53
2021/06/08 02:14:25;;;;;;;11.93;9.13;;;;;;;;;;5067961;28;20579;-51
2021/06/08 02:17:00;;;;;;;11.02;8.30;;;;;;;;;;5070609;28;20047;-51
2021/06/08 02:19:27;;;;;;;11.77;9.15;;;;;;;;;;5069812;28;20044;-51
2021/06/08 02:22:01;;;;;;;13.13;8.93;;;;;;;;;;5061431;28;20052;-52
2021/06/08 02:24:28;;;;;;;11.27;8.07;;;;;;;;;;5068113;28;20053;-54
2021/06/08 02:27:02;;;;;;;14.30;9.25;;;;;;;;;;5065543;28;20059;-54
2021/06/08 02:29:30;;;;;;;12.75;8.88;;;;;;;;;;5068142;28;20041;-53
2021/06/08 02:31:57;;;;;;;15.13;9.00;;;;;;;;;;5066743;28;20052;-52
2021/06/08 02:34:23;;;;;;;10.50;8.23;;;;;;;;;;5067531;28;20543;-56
2021/06/08 02:36:51;;;;;;;12.90;8.77;;;;;;;;;;5070553;28;20049;-51
2021/06/08 02:39:18;;;;;;;10.63;7.28;;;;;;;;;;5064789;28;20040;-55
2021/06/08 02:41:45;;;;;;;13.93;9.13;;;;;;;;;;5069023;28;20044;-58
2021/06/08 02:44:12;;;;;;;11.63;8.68;;;;;;;;;;5065922;28;20062;-52
2021/06/08 02:46:39;;;;;;;11.43;8.85;;;;;;;;;;5063753;28;20592;-51
2021/06/08 02:49:06;;;;;;;15.95;9.10;;;;;;;;;;5064980;28;20056;-53
2021/06/08 02:51:34;;;;;;;12.48;9.27;;;;;;;;;;5069931;28;20040;-53
2021/06/08 02:54:02;;;;;;;12.63;9.00;;;;;;;;;;5069017;28;20041;-56
2021/06/08 02:56:28;;;;;;;12.45;9.27;;;;;;;;;;5049800;28;20110;-54
2021/06/08 02:58:55;;;;;;;12.70;9.25;;;;;;;;;;5070734;28;20041;-52
2021/06/08 03:01:22;;;;;;;14.98;9.90;;;;;;;;;;5062313;28;20570;-52
2021/06/08 03:03:51;;;;;;;10.82;8.82;;;;;;;;;;5065779;28;20045;-51
2021/06/08 03:06:21;;;;;;;12.15;9.40;;;;;;;;;;5066856;28;20044;-52
2021/06/08 03:08:59;;;;;;;11.60;9.18;;;;;;;;;;5061630;28;20147;-53
2021/06/08 03:11:28;;;;;;;10.90;8.23;;;;;;;;;;5066243;28;20043;-53
2021/06/08 03:13:55;;;;;;;11.60;8.68;;;;;;;;;;5064647;28;20164;-53
2021/06/08 03:16:24;;;;;;;12.50;8.90;;;;;;;;;;5071304;28;20045;-53
2021/06/08 03:18:53;;;;;;;14.00;9.65;;;;;;;;;;5066323;28;20055;-54
2021/06/08 03:21:22;;;;;;;11.13;8.75;;;;;;;;;;5066423;28;20061;-53
2021/06/08 03:23:53;;;;;;;11.35;8.88;;;;;;;;;;5068474;28;20057;-55
2021/06/08 03:26:20;;;;;;;12.02;8.30;;;;;;;;;;5065604;28;20056;-53
2021/06/08 03:28:48;;;;;;;12.55;9.43;;;;;;;;;;5068036;28;20040;-52
2021/06/08 03:31:15;;;;;;;13.00;9.55;;;;;;;;;;5071424;28;20052;-54
2021/06/08 03:33:42;;;;;;;10.50;8.80;;;;;;;;;;5064337;28;20048;-51
2021/06/08 03:36:09;;;;;;;13.73;9.57;;;;;;;;;;5067126;28;20463;-53
2021/06/08 03:38:37;;;;;;;11.55;8.93;;;;;;;;;;5067315;28;20047;-52
2021/06/08 03:41:04;;;;;;;11.35;9.57;;;;;;;;;;5051974;28;20570;-52
2021/06/08 03:43:30;;;;;;;13.00;8.80;;;;;;;;;;5065501;28;20044;-55
2021/06/08 03:45:57;;;;;;;12.45;8.00;;;;;;;;;;5065569;28;20066;-54
2021/06/08 03:48:24;;;;;;;10.55;8.70;;;;;;;;;;5067389;28;20048;-55
2021/06/08 03:50:51;;;;;;;12.27;9.13;;;;;;;;;;5064092;28;20056;-51
2021/06/08 03:53:18;;;;;;;13.57;9.88;;;;;;;;;;5067346;28;20558;-52
2021/06/08 03:55:47;;;;;;;11.88;9.35;;;;;;;;;;5063275;28;20048;-54
2021/06/08 03:58:17;;;;;;;11.50;8.98;;;;;;;;;;5066615;28;20041;-54
2021/06/08 04:00:51;;;;;;;13.73;8.40;;;;;;;;;;5072795;28;20040;-52
2021/06/08 04:03:19;;;;;;;11.27;8.20;;;;;;;;;;5067157;28;20131;-53
2021/06/08 04:05:46;;;;;;;11.05;7.47;;;;;;;;;;5066254;28;20054;-50
2021/06/08 04:08:12;;;;;;;8.20;7.00;;;;;;;;;;5064392;28;20063;-50
2021/06/08 04:10:39;;;;;;;13.88;8.77;;;;;;;;;;5068854;28;20475;-53
2021/06/08 04:13:06;;;;;;;13.93;9.27;;;;;;;;;;5063375;28;20731;-54
2021/06/08 04:15:33;;;;;;;11.30;8.85;;;;;;;;;;5062142;28;20077;-55
2021/06/08 04:18:01;;;;;;;11.48;8.45;;;;;;;;;;5062721;28;20050;-54
2021/06/08 04:20:28;;;;;;;10.82;8.52;;;;;;;;;;5058755;28;20080;-52
2021/06/08 04:22:56;;;;;;;10.10;8.65;;;;;;;;;;5065241;28;20053;-53
2021/06/08 04:25:23;;;;;;;11.52;8.68;;;;;;;;;;5064532;28;20044;-53
2021/06/08 04:27:50;;;;;;;10.88;8.75;;;;;;;;;;5064055;28;20056;-55
2021/06/08 04:30:17;;;;;;;9.98;8.05;;;;;;;;;;5064044;28;20497;-54
2021/06/08 04:32:45;;;;;;;10.45;7.90;;;;;;;;;;5062036;28;20051;-52
2021/06/08 04:35:12;;;;;;;14.55;10.43;;;;;;;;;;5062777;28;20048;-56
2021/06/08 04:37:39;;;;;;;15.75;10.65;;;;;;;;;;5065533;28;20048;-52
2021/06/08 04:40:08;;;;;;;14.43;10.82;;;;;;;;;;5068985;28;20052;-54
2021/06/08 04:42:38;;;;;;;13.98;10.88;;;;;;;;;;5064916;28;20141;-52
2021/06/08 04:45:28;;;;;;;13.90;9.85;;;;;;;;;;5082474;27;20414;-52
2021/06/08 04:47:54;;;;;;;13.85;8.30;;;;;;;;;;5027979;28;20080;-56
2021/06/08 04:50:20;;;;;;;15.07;8.98;;;;;;;;;;5021546;28;20045;-54
2021/06/08 04:52:55;;;;;;;13.60;10.35;;;;;;;;;;5016644;28;20041;-53
2021/06/08 04:55:25;;;;;;;14.82;9.85;;;;;;;;;;5019008;28;20137;-53
2021/06/08 04:57:52;;;;;;;11.68;8.95;;;;;;;;;;5016038;28;20548;-56
2021/06/08 05:00:22;;;;;;;13.55;9.90;;;;;;;;;;5016597;28;20058;-55
2021/06/08 05:02:50;;;;;;;12.25;9.63;;;;;;;;;;5024199;28;20042;-55
2021/06/08 05:05:20;;;;;;;14.73;9.75;;;;;;;;;;5038853;28;20368;-55
2021/06/08 05:07:51;;;;;;;14.75;9.63;;;;;;;;;;5037561;28;20041;-55
2021/06/08 05:10:18;;;;;;;10.60;8.60;;;;;;;;;;5035934;28;20100;-55
2021/06/08 05:12:45;;;;;;;13.90;9.93;;;;;;;;;;5037737;28;20041;-55
2021/06/08 05:15:15;;;;;;;15.88;9.32;;;;;;;;;;5037954;28;20064;-55
2021/06/08 05:17:43;;;;;;;12.02;9.55;;;;;;;;;;5036546;28;20128;-55
2021/06/08 05:20:14;;;;;;;14.88;10.27;;;;;;;;;;5039795;28;20126;-55
2021/06/08 05:22:41;;;;;;;12.57;8.40;;;;;;;;;;5035069;28;20045;-55
2021/06/08 05:25:07;;;;;;;12.63;9.63;;;;;;;;;;5043531;28;20144;-53
2021/06/08 05:27:34;;;;;;;13.70;8.80;;;;;;;;;;5053799;28;20161;-56
2021/06/08 05:30:00;;;;;;;11.55;9.02;;;;;;;;;;5055258;28;20055;-54
2021/06/08 05:32:28;;;;;;;14.02;9.80;;;;;;;;;;5057595;28;20084;-54
2021/06/08 05:34:55;;;;;;;13.95;9.75;;;;;;;;;;5057206;28;20124;-52
2021/06/08 05:37:22;;;;;;;12.90;9.02;;;;;;;;;;5056172;28;20040;-52
2021/06/08 05:39:49;;;;;;;13.80;9.73;;;;;;;;;;5060915;28;20049;-53
2021/06/08 05:42:18;;;;;;;10.85;8.55;;;;;;;;;;5053240;28;20049;-54
2021/06/08 05:44:44;;;;;;;10.98;8.73;;;;;;;;;;5058790;28;20045;-54
2021/06/08 05:47:11;;;;;;;12.25;9.23;;;;;;;;;;5056491;28;20048;-53
2021/06/08 05:49:39;;;;;;;12.80;9.02;;;;;;;;;;5056368;28;20045;-54
2021/06/08 05:52:10;;;;;;;11.43;8.98;;;;;;;;;;5054698;28;20045;-56
2021/06/08 05:54:36;;;;;;;14.18;10.10;;;;;;;;;;5049298;28;20041;-53
2021/06/08 05:57:04;;;;;;;14.32;9.85;;;;;;;;;;5039961;28;20505;-52
2021/06/08 05:59:30;;;;;;;9.95;8.15;;;;;;;;;;5045828;28;20049;-54
2021/06/08 06:01:57;;;;;;;9.82;7.88;;;;;;;;;;5044448;28;20073;-55
2021/06/08 06:04:24;;;;;;;12.13;9.27;;;;;;;;;;5047036;28;20163;-54
2021/06/08 06:06:51;;;;;;;12.40;8.90;;;;;;;;;;5044493;28;20567;-53
2021/06/08 06:09:22;;;;;;;11.60;8.80;;;;;;;;;;5043137;28;20490;-51
2021/06/08 06:11:51;;;;;;;13.02;9.23;;;;;;;;;;5042584;28;20048;-52
2021/06/08 06:14:21;;;;;;;16.48;9.00;;;;;;;;;;5046473;28;20095;-55
2021/06/08 06:16:52;;;;;;;13.40;9.15;;;;;;;;;;5040570;28;20037;-53
2021/06/08 06:19:22;;;;;;;12.02;7.70;;;;;;;;;;5045082;28;20049;-55
2021/06/08 06:21:49;;;;;;;12.73;7.50;;;;;;;;;;5043363;28;20124;-55
2021/06/08 06:24:15;;;;;;;11.73;7.63;;;;;;;;;;5042715;28;20088;-56
2021/06/08 06:26:43;;;;;;;9.00;7.00;;;;;;;;;;5040983;28;20051;-52
2021/06/08 06:29:10;;;;;;;10.43;5.70;;;;;;;;;;5042690;28;20060;-56
2021/06/08 06:31:37;;;;;;;10.40;5.70;;;;;;;;;;5043135;28;20140;-56
2021/06/08 06:34:04;;;;;;;6.68;4.50;;;;;;;;;;5046118;28;20493;-56
2021/06/08 06:36:36;;;;;;;12.43;5.45;;;;;;;;;;5043649;28;20107;-56
2021/06/08 06:39:09;;;;;;;6.75;4.72;;;;;;;;;;5043331;28;20132;-55
2021/06/08 06:41:40;;;;;;;19.63;11.13;;;;;;;;;;5042633;28;20136;-54
2021/06/08 06:44:06;;;;;;;9.27;6.20;;;;;;;;;;5038845;28;20406;-54
2021/06/08 06:46:33;;;;;;;8.15;5.05;;;;;;;;;;5043086;28;20155;-55
2021/06/08 06:49:00;;;;;;;8.38;5.65;;;;;;;;;;5042267;28;20091;-56
2021/06/08 06:51:26;;;;;;;8.90;5.82;;;;;;;;;;5043634;28;20051;-56
2021/06/08 06:53:57;;;;;;;9.77;4.55;;;;;;;;;;5045082;28;20049;-55
2021/06/08 06:56:24;;;;;;;10.55;5.10;;;;;;;;;;5042960;28;20394;-53
2021/06/08 06:58:51;;;;;;;7.28;5.15;;;;;;;;;;5042607;28;20079;-56
2021/06/08 07:01:21;;;;;;;10.25;5.47;;;;;;;;;;5041734;28;20127;-53
2021/06/08 07:03:50;;;;;;;13.90;7.55;;;;;;;;;;5044278;28;20489;-54
2021/06/08 07:06:18;;;;;;;10.02;6.65;;;;;;;;;;5042203;28;20076;-53
2021/06/08 07:08:48;;;;;;;10.25;6.65;;;;;;;;;;5040396;28;20043;-53
2021/06/08 07:11:15;;;;;;;7.70;5.57;;;;;;;;;;5041789;28;20858;-55
2021/06/08 07:13:42;;;;;;;10.65;6.30;;;;;;;;;;5046942;28;20094;-54
2021/06/08 07:16:08;;;;;;;8.70;5.82;;;;;;;;;;5042308;28;20080;-54
2021/06/08 07:18:35;;;;;;;7.18;5.20;;;;;;;;;;5045621;28;20048;-54
2021/06/08 07:21:04;;;;;;;8.65;5.15;;;;;;;;;;5041522;28;20047;-56
2021/06/08 07:23:31;;;;;;;9.60;5.03;;;;;;;;;;5044546;28;20045;-55
2021/06/08 07:25:58;;;;;;;8.63;4.40;;;;;;;;;;5038869;28;20545;-52
2021/06/08 07:28:25;;;;;;;6.47;3.97;;;;;;;;;;5042992;28;20048;-55
2021/06/08 07:30:54;;;;;;;6.68;3.70;;;;;;;;;;5037884;28;20511;-56
2021/06/08 07:33:28;;;;;;;8.38;3.65;;;;;;;;;;5043119;28;20057;-57
2021/06/08 07:36:00;;;;;;;10.17;2.97;;;;;;;;;;5039019;28;20045;-54
2021/06/08 07:38:31;;;;;;;5.32;2.88;;;;;;;;;;5046280;28;20136;-56
2021/06/08 07:41:03;;;;;;;7.28;3.50;;;;;;;;;;5037268;28;20049;-55
2021/06/08 07:43:42;;;;;;;5.20;3.00;;;;;;;;;;5047307;28;20144;-54
2021/06/08 07:46:11;;;;;;;7.80;2.90;;;;;;;;;;5040639;28;20139;-55
2021/06/08 07:48:38;;;;;;;5.85;2.75;;;;;;;;;;5039956;28;20124;-56
2021/06/08 07:51:05;;;;;;;7.22;2.75;;;;;;;;;;5039053;28;20492;-55
2021/06/08 07:53:32;;;;;;;4.57;2.85;;;;;;;;;;5042264;28;20045;-54
2021/06/08 07:56:00;;;;;;;5.05;2.28;;;;;;;;;;5037214;28;20132;-52
2021/06/08 07:58:27;;;;;;;5.95;3.45;;;;;;;;;;5044062;28;20083;-56
2021/06/08 08:00:58;;;;;;;4.85;2.60;;;;;;;;;;5041879;28;20037;-55
2021/06/08 08:03:27;;;;;;;5.88;2.75;;;;;;;;;;5042781;28;20091;-53
2021/06/08 08:05:58;;;;;;;4.28;2.63;;;;;;;;;;5039365;28;20060;-56
2021/06/08 08:08:25;;;;;;;4.88;2.95;;;;;;;;;;5041735;28;20045;-56
2021/06/08 08:10:52;;;;;;;4.72;2.40;;;;;;;;;;5039202;28;20132;-55
2021/06/08 08:13:21;;;;;;;4.65;2.45;;;;;;;;;;5045788;28;20095;-53
2021/06/08 08:16:02;;;;;;;4.00;2.50;;;;;;;;;;5039007;28;20459;-53
2021/06/08 08:18:30;;;;;;;5.72;2.55;;;;;;;;;;5042705;28;20049;-55
2021/06/08 08:20:56;;;;;;;6.82;2.13;;;;;;;;;;5039663;28;20061;-52
2021/06/08 08:23:27;;;;;;;3.85;1.67;;;;;;;;;;5040246;28;20040;-55
2021/06/08 08:25:59;;;;;;;3.75;2.05;;;;;;;;;;5040668;28;20049;-55
2021/06/08 08:28:26;;;;;;;6.40;2.05;;;;;;;;;;5043653;28;20419;-55
2021/06/08 08:30:53;;;;;;;2.78;1.95;;;;;;;;;;5041874;28;20080;-54
2021/06/08 08:33:24;;;;;;;5.10;2.15;;;;;;;;;;5042332;28;20213;-56
2021/06/08 08:35:51;;;;;;;3.08;2.47;;;;;;;;;;5041109;28;20047;-55
2021/06/08 08:38:17;;;;;;;6.30;2.30;;;;;;;;;;5040232;28;20057;-55
2021/06/08 08:40:44;;;;;;;4.30;2.30;;;;;;;;;;5042694;28;20136;-56
2021/06/08 08:43:11;;;;;;;5.43;2.33;;;;;;;;;;5040484;28;20480;-54
2021/06/08 08:45:37;;;;;;;4.03;2.20;;;;;;;;;;5034470;28;20060;-54
2021/06/08 08:48:04;;;;;;;5.53;2.40;;;;;;;;;;5040483;28;20103;-51
2021/06/08 08:50:30;;;;;;;4.82;2.42;;;;;;;;;;5042063;28;20073;-52
2021/06/08 08:53:02;;;;;;;8.77;2.58;;;;;;;;;;5038905;28;20051;-54
2021/06/08 08:55:30;;;;;;;5.15;2.58;;;;;;;;;;5038415;28;20052;-54
2021/06/08 08:57:57;;;;;;;4.50;2.13;;;;;;;;;;5044023;28;20140;-56
2021/06/08 09:00:25;;;;;;;5.60;3.08;;;;;;;;;;5033476;28;20132;-54
2021/06/08 09:02:55;;;;;;;4.63;3.03;;;;;;;;;;5041058;28;20136;-55
2021/06/08 09:05:22;;;;;;;5.72;2.47;;;;;;;;;;5039827;28;20057;-56
2021/06/08 09:07:49;;;;;;;4.43;3.30;;;;;;;;;;5044018;28;20068;-57
2021/06/08 09:10:17;;;;;;;3.42;2.72;;;;;;;;;;5041335;28;20045;-54
2021/06/08 09:12:43;;;;;;;5.47;3.15;;;;;;;;;;5043072;28;20041;-54
2021/06/08 09:15:11;;;;;;;3.72;3.08;;;;;;;;;;5034337;28;20051;-54
2021/06/08 09:17:40;;;;;;;7.35;3.20;;;;;;;;;;5038277;28;20460;-56
2021/06/08 09:20:07;;;;;;;7.13;2.95;;;;;;;;;;5038582;28;20132;-57
2021/06/08 09:22:54;;;;;;;5.40;3.25;;;;;;;;;;5044708;28;20388;-56
2021/06/08 09:25:39;;;;;;;6.80;2.95;;;;;;;;;;5042377;28;20133;-55
2021/06/08 09:28:25;;;;;;;4.43;3.13;;;;;;;;;;5043247;28;20081;-54
2021/06/08 09:31:04;;;;;;;5.38;3.58;;;;;;;;;;5038162;28;20049;-53
2021/06/08 09:33:33;;;;;;;6.30;3.83;;;;;;;;;;5042557;28;20118;-54
2021/06/08 09:35:59;;;;;;;8.90;3.38;;;;;;;;;;5044086;28;20495;-55
2021/06/08 09:38:52;;;;;;;7.47;3.42;;;;;;;;;;5047836;28;20148;-55
2021/06/08 09:41:23;;;;;;;6.97;3.40;;;;;;;;;;5037277;28;20053;-55
2021/06/08 09:43:56;;;;;;;4.40;3.10;;;;;;;;;;5045899;28;20046;-56
2021/06/08 09:46:25;;;;;;;5.35;3.08;;;;;;;;;;5043944;28;20136;-53
2021/06/08 09:48:53;;;;;;;4.40;3.22;;;;;;;;;;5043766;28;20523;-56
2021/06/08 09:51:20;;;;;;;5.68;2.75;;;;;;;;;;5043743;28;20048;-55
2021/06/08 09:53:51;;;;;;;3.17;2.40;;;;;;;;;;5045783;28;20127;-54
2021/06/08 09:56:21;;;;;;;5.32;3.00;;;;;;;;;;5042070;28;20471;-53
2021/06/08 09:58:48;;;;;;;4.15;3.13;;;;;;;;;;5043855;28;20057;-55
2021/06/08 10:01:17;;;;;;;5.57;3.13;;;;;;;;;;5042474;28;20135;-55
2021/06/08 10:03:48;;;;;;;7.28;3.47;;;;;;;;;;5045342;28;20156;-56
2021/06/08 10:06:16;;;;;;;5.20;3.50;;;;;;;;;;5044179;28;20486;-53
2021/06/08 10:08:56;;;;;;;7.50;3.17;;;;;;;;;;5042841;28;20139;-56
2021/06/08 10:11:24;;;;;;;4.15;1.80;;;;;;;;;;5044477;28;20491;-57
2021/06/08 10:13:57;;;;;;;2.55;1.48;;;;;;;;;;5043311;28;20487;-56
2021/06/08 10:16:26;;;;;;;3.95;2.25;;;;;;;;;;5041287;28;20522;-56
2021/06/08 10:18:53;;;;;;;3.78;2.85;;;;;;;;;;5044434;28;20045;-55
2021/06/08 10:21:32;;;;;;;5.60;3.25;;;;;;;;;;5038969;28;20048;-55
2021/06/08 10:24:06;;;;;;;4.95;3.47;;;;;;;;;;5040204;28;20046;-56
2021/06/08 10:26:34;;;;;;;4.57;2.60;;;;;;;;;;5044676;28;20439;-56
2021/06/08 10:29:05;;;;;;;4.25;2.63;;;;;;;;;;5038233;28;20068;-52
2021/06/08 10:31:35;;;;;;;7.50;3.15;;;;;;;;;;5046930;28;20125;-55
2021/06/08 10:34:04;;;;;;;5.65;3.05;;;;;;;;;;5040767;28;20128;-52
2021/06/08 10:36:33;;;;;;;3.33;2.47;;;;;;;;;;5040734;28;20136;-55
2021/06/08 10:39:00;;;;;;;8.65;2.63;;;;;;;;;;5039586;28;20081;-56
2021/06/08 10:41:27;;;;;;;4.68;2.55;;;;;;;;;;5043576;28;20043;-54
2021/06/08 10:43:53;;;;;;;2.70;2.30;;;;;;;;;;5043069;28;20124;-53
2021/06/08 10:46:22;;;;;;;3.88;2.55;;;;;;;;;;5043478;28;20084;-54
2021/06/08 10:48:49;;;;;;;5.07;2.33;;;;;;;;;;5044753;28;20479;-54
2021/06/08 10:51:19;;;;;;;5.72;2.90;;;;;;;;;;5043369;28;20052;-54
2021/06/08 10:53:47;;;;;;;3.97;2.80;;;;;;;;;;5040786;28;20132;-56
2021/06/08 10:56:23;;;;;;;4.10;2.33;;;;;;;;;;5044672;28;20079;-55
2021/06/08 10:58:53;;;;;;;;;;;;;;;;;;5041844;28;20072;-55
2021/06/08 11:01:37;;;;;;;6.05;2.92;;;;;;;;;;5038360;28;19935;-56
2021/06/08 11:04:07;;;;;;;4.25;2.42;;;;;;;;;;5042772;28;20417;-56
2021/06/08 11:06:37;;;;;;;5.70;2.15;;;;;;;;;;5044491;28;20136;-55
2021/06/08 11:09:12;;;;;;;4.88;2.55;;;;;;;;;;5043732;28;20037;-56
2021/06/08 11:11:43;;;;;;;4.93;2.97;;;;;;;;;;5036430;28;20136;-53
2021/06/08 11:14:28;;;;;;;6.00;3.22;;;;;;;;;;5042207;28;20475;-56
2021/06/08 11:16:58;;;;;;;4.85;3.00;;;;;;;;;;5042950;28;20132;-56
2021/06/08 11:19:43;;;;;;;4.50;3.28;;;;;;;;;;5039179;28;20049;-55
2021/06/08 11:22:14;;;;;;;8.52;3.60;;;;;;;;;;5043191;28;20080;-56
2021/06/08 11:24:42;;;;;;;10.50;7.15;;;;;;;;;;5041804;28;20505;-56
2021/06/08 11:27:08;;;;;;;9.18;7.00;;;;;;;;;;5045120;28;20080;-56
2021/06/08 11:29:57;;;;;;;11.32;7.72;;;;;;;;;;5039923;28;20055;-54
2021/06/08 11:32:30;;;;;;;11.13;7.22;;;;;;;;;;5039072;28;20609;-54
2021/06/08 11:35:09;;;;;;;10.10;6.70;;;;;;;;;;5040501;28;20076;-52
2021/06/08 11:37:54;;;;;;;10.82;7.10;;;;;;;;;;5046730;28;20123;-54
2021/06/08 11:40:36;;;;;;;11.82;6.70;;;;;;;;;;5040504;28;20049;-54
2021/06/08 11:43:03;;;;;;;9.88;6.70;;;;;;;;;;5043213;28;20081;-55
2021/06/08 11:45:30;;;;;;;7.72;5.63;;;;;;;;;;5041788;28;20045;-55
2021/06/08 11:47:57;;;;;;;8.50;6.07;;;;;;;;;;5041222;28;20044;-55
2021/06/08 11:50:37;;;;;;;10.70;6.22;;;;;;;;;;5041794;28;20045;-56
2021/06/08 11:53:04;;;;;;;13.00;7.75;;;;;;;;;;5042373;28;20068;-54
2021/06/08 11:55:31;;;;;;;14.35;9.20;;;;;;;;;;5042951;28;20077;-52
2021/06/08 11:57:57;;;;;;;13.25;9.20;;;;;;;;;;5042267;28;20077;-53
2021/06/08 12:00:41;;;;;;;15.55;11.15;;;;;;;;;;5040796;28;20422;-56
2021/06/08 12:03:26;;;;;;;13.80;8.45;;;;;;;;;;5037847;28;20051;-56
2021/06/08 12:05:53;;;;;;;15.93;10.10;;;;;;;;;;5043104;28;20041;-56
2021/06/08 12:08:23;;;;;;;14.15;9.65;;;;;;;;;;5035020;28;20440;-55
2021/06/08 12:10:50;;;;;;;13.32;8.68;;;;;;;;;;5037988;28;20068;-52
2021/06/08 12:13:17;;;;;;;18.13;10.45;;;;;;;;;;5044174;28;20656;-55
2021/06/08 12:15:45;;;;;;;13.90;9.32;;;;;;;;;;5043674;28;20088;-55
2021/06/08 12:18:18;;;;;;;14.10;9.75;;;;;;;;;;5041708;28;20103;-55
2021/06/08 12:20:53;;;;;;;15.60;10.38;;;;;;;;;;5041897;28;20049;-55
2021/06/08 12:23:28;;;;;;;12.85;9.07;;;;;;;;;;5042196;28;20045;-54
2021/06/08 12:26:08;;;;;;;15.32;9.18;;;;;;;;;;5041921;28;20606;-55
2021/06/08 12:28:34;;;;;;;12.07;8.05;;;;;;;;;;5041672;28;20243;-57
2021/06/08 12:31:18;;;;;;;11.75;9.75;;;;;;;;;;5038645;28;20053;-56
2021/06/08 12:33:45;;;;;;;13.38;9.93;;;;;;;;;;5039813;28;20064;-55
2021/06/08 12:36:12;;;;;;;18.40;10.73;;;;;;;;;;5039595;28;20084;-53
2021/06/08 12:38:49;;;;;;;13.77;10.23;;;;;;;;;;5039730;28;20135;-56
2021/06/08 12:41:16;;;;;;;15.93;10.40;;;;;;;;;;5045184;28;20060;-54
2021/06/08 12:43:51;;;;;;;13.27;10.18;;;;;;;;;;5042838;28;20068;-56
2021/06/08 12:46:31;;;;;;;16.63;10.15;;;;;;;;;;5038176;28;20069;-54
2021/06/08 12:49:11;;;;;;;16.38;10.43;;;;;;;;;;5036712;28;20045;-56
2021/06/08 12:51:44;;;;;;;17.85;10.52;;;;;;;;;;5041417;28;20045;-55
2021/06/08 12:54:26;;;;;;;16.10;9.63;;;;;;;;;;5038378;28;20068;-57
2021/06/08 12:56:52;;;;;;;22.65;11.75;;;;;;;;;;5042705;28;20127;-57
2021/06/08 12:59:43;;;;;;;15.85;11.25;;;;;;;;;;5040549;28;20081;-56
2021/06/08 13:02:10;;;;;;;21.52;13.27;;;;;;;;;;5040437;28;20575;-54
2021/06/08 13:04:41;;;;;;;19.70;11.43;;;;;;;;;;5038389;28;20128;-55
2021/06/08 13:07:08;;;;;;;12.32;8.77;;;;;;;;;;5045444;28;20140;-55
2021/06/08 13:09:35;;;;;;;12.85;9.35;;;;;;;;;;5045316;28;20128;-56
2021/06/08 13:12:02;;;;;;;18.58;11.15;;;;;;;;;;5048273;28;20041;-52
2021/06/08 13:14:29;;;;;;;19.67;11.23;;;;;;;;;;5042110;28;20443;-54
2021/06/08 13:16:55;;;;;;;13.27;9.27;;;;;;;;;;5043000;28;20124;-53
2021/06/08 13:19:25;;;;;;;15.32;9.40;;;;;;;;;;5039767;28;20508;-54
2021/06/08 13:21:53;;;;;;;22.05;12.52;;;;;;;;;;5047390;28;20130;-56
2021/06/08 13:24:25;;;;;;;19.42;12.65;;;;;;;;;;5043896;28;20131;-54
2021/06/08 13:27:07;;;;;;;16.98;12.15;;;;;;;;;;5046818;28;20372;-56
2021/06/08 13:29:35;;;;;;;18.52;13.60;;;;;;;;;;5044783;28;20143;-55
2021/06/08 13:32:01;;;;;;;15.35;11.15;;;;;;;;;;5045005;28;20072;-55
2021/06/08 13:34:28;;;;;;;15.68;10.00;;;;;;;;;;5041329;28;20131;-56
2021/06/08 13:37:05;;;;;;;16.98;11.95;;;;;;;;;;5044979;28;20155;-55
2021/06/08 13:39:38;;;;;;;16.70;11.27;;;;;;;;;;5039811;28;20132;-54
2021/06/08 13:42:18;;;;;;;18.15;11.73;;;;;;;;;;5046670;28;20048;-54
2021/06/08 13:44:57;;;;;;;17.33;11.80;;;;;;;;;;5044585;28;20487;-55
2021/06/08 13:47:28;;;;;;;14.57;9.80;;;;;;;;;;5040461;28;20098;-56
2021/06/08 13:49:54;;;;;;;15.05;11.68;;;;;;;;;;5038117;28;20072;-54
2021/06/08 13:52:21;;;;;;;14.98;10.80;;;;;;;;;;5046722;28;20087;-56
2021/06/08 13:54:48;;;;;;;18.30;10.85;;;;;;;;;;5043635;28;20055;-55
2021/06/08 14:02:44;;;;;;;12.45;8.93;;;;;;;;;;5042014;28;20079;-53
2021/06/08 14:05:31;;;;;;;13.02;8.93;;;;;;;;;;5043080;28;20071;-51
2021/06/08 14:07:58;;;;;;;14.02;9.40;;;;;;;;;;5044846;28;20132;-58
2021/06/08 14:10:25;;;;;;;10.57;7.70;;;;;;;;;;5040581;28;20143;-56
2021/06/08 14:13:08;;;;;;;12.63;7.47;;;;;;;;;;5041258;28;20051;-53
2021/06/08 14:15:46;;;;;;;13.95;8.80;;;;;;;;;;5048388;28;20037;-56
2021/06/08 14:18:12;;;;;;;12.30;8.25;;;;;;;;;;5042304;28;20041;-56
2021/06/08 14:20:39;;;;;;;13.32;8.52;;;;;;;;;;5046345;28;20257;-52
2021/06/08 14:23:06;;;;;;;10.70;7.85;;;;;;;;;;5039666;28;20467;-55
2021/06/08 14:25:32;;;;;;;10.82;6.78;;;;;;;;;;5042084;28;20046;-54
2021/06/08 14:27:59;;;;;;;12.23;9.20;;;;;;;;;;5042731;28;20052;-54
2021/06/08 14:30:25;;;;;;;12.73;9.40;;;;;;;;;;5046472;28;20041;-55
2021/06/08 14:32:51;;;;;;;14.13;8.90;;;;;;;;;;5039060;28;20045;-57
2021/06/08 14:35:18;;;;;;;13.63;9.40;;;;;;;;;;5042809;28;20127;-53
2021/06/08 14:37:44;;;;;;;13.18;9.45;;;;;;;;;;5042193;28;20132;-53
2021/06/08 14:40:11;;;;;;;12.23;8.40;;;;;;;;;;5042735;28;20144;-54
2021/06/08 14:42:37;;;;;;;15.55;9.90;;;;;;;;;;5036922;28;20399;-52
2021/06/08 14:45:05;;;;;;;16.23;8.90;;;;;;;;;;5044360;28;20132;-52
2021/06/08 14:47:31;;;;;;;13.27;9.07;;;;;;;;;;5041135;28;20463;-52
2021/06/08 14:49:58;;;;;;;19.23;11.98;;;;;;;;;;5040605;28;20045;-55
2021/06/08 14:52:24;;;;;;;21.23;15.23;;;;;;;;;;5041758;28;20055;-55